createdAt,value
2022-12-08T00:02:09.760Z,99858.16
2022-12-08T00:04:56.239Z,99858.09
2022-12-08T00:07:41.444Z,99853.91
2022-12-08T00:10:32.316Z,99848.56
2022-12-08T00:12:54.945Z,99845.00
2022-12-08T00:15:21.291Z,99845.81
2022-12-08T00:17:47.640Z,99836.97
2022-12-08T00:20:13.980Z,99836.56
2022-12-08T00:22:40.601Z,99829.59
2022-12-08T00:25:07.308Z,99833.31
2022-12-08T00:27:33.715Z,99829.81
2022-12-08T00:30:00.084Z,99822.88
2022-12-08T00:32:26.491Z,99828.75
2022-12-08T00:34:52.812Z,99818.41
2022-12-08T00:37:19.149Z,99816.56
2022-12-08T00:39:45.504Z,99810.34
2022-12-08T00:42:11.951Z,99809.47
2022-12-08T00:44:39.485Z,99807.00
2022-12-08T00:47:06.066Z,99815.00
2022-12-08T00:49:32.442Z,99803.34
2022-12-08T00:51:58.884Z,99807.66
2022-12-08T00:54:25.321Z,99806.84
2022-12-08T00:56:52.113Z,99805.44
2022-12-08T00:59:18.816Z,99802.63
2022-12-08T01:01:46.687Z,99800.84
2022-12-08T01:04:15.839Z,99797.50
2022-12-08T01:06:42.874Z,99802.78
2022-12-08T01:09:10.187Z,99805.50
2022-12-08T01:11:37.354Z,99801.25
2022-12-08T01:14:03.800Z,99795.66
2022-12-08T01:16:33.327Z,99799.16
2022-12-08T01:19:00.965Z,99796.50
2022-12-08T01:21:28.291Z,99795.84
2022-12-08T01:23:54.732Z,99790.09
2022-12-08T01:26:21.295Z,99796.19
2022-12-08T01:28:48.101Z,99793.56
2022-12-08T01:31:22.004Z,99790.81
2022-12-08T01:33:49.589Z,99790.78
2022-12-08T01:36:18.677Z,99793.13
2022-12-08T01:38:45.127Z,99794.84
2022-12-08T01:41:16.199Z,99788.38
2022-12-08T01:43:55.456Z,99785.25
2022-12-08T01:46:22.456Z,99786.91
2022-12-08T01:48:51.815Z,99794.75
2022-12-08T01:51:18.515Z,99785.28
2022-12-08T01:53:45.918Z,99783.63
2022-12-08T01:56:18.620Z,99780.91
2022-12-08T01:58:49.444Z,99775.69
2022-12-08T02:01:16.357Z,99780.84
2022-12-08T02:03:57.826Z,99771.59
2022-12-08T02:06:24.723Z,99775.63
2022-12-08T02:08:51.931Z,99773.97
2022-12-08T02:11:18.269Z,99774.97
2022-12-08T02:13:47.032Z,99771.44
2022-12-08T02:16:52.368Z,99769.63
2022-12-08T02:19:49.199Z,99766.16
2022-12-08T02:22:36.061Z,99765.38
2022-12-08T02:25:40.545Z,99759.28
2022-12-08T02:28:23.763Z,99760.91
2022-12-08T02:30:56.036Z,99764.22
2022-12-08T02:33:59.984Z,99761.75
2022-12-08T02:36:35.283Z,99755.47
2022-12-08T02:39:11.367Z,99753.88
2022-12-08T02:41:52.664Z,99761.69
2022-12-08T02:44:35.507Z,99753.91
2022-12-08T02:47:15.556Z,99750.44
2022-12-08T02:49:42.082Z,99746.03
2022-12-08T02:52:29.080Z,99748.34
2022-12-08T02:54:57.359Z,99738.59
2022-12-08T02:57:35.888Z,99734.38
2022-12-08T03:00:09.057Z,99729.09
2022-12-08T03:02:44.565Z,99726.28
2022-12-08T03:05:22.016Z,99719.41
2022-12-08T03:08:16.437Z,99724.88
2022-12-08T03:10:55.973Z,99728.06
2022-12-08T03:13:29.575Z,99723.88
2022-12-08T03:15:56.679Z,99723.16
2022-12-08T03:18:27.824Z,99722.25
2022-12-08T03:20:54.632Z,99722.25
2022-12-08T03:23:22.428Z,99714.34
2022-12-08T03:25:56.866Z,99713.50
2022-12-08T03:28:24.011Z,99717.84
2022-12-08T03:30:55.317Z,99722.25
2022-12-08T03:33:32.784Z,99704.75
2022-12-08T03:36:02.027Z,99701.28
2022-12-08T03:38:44.119Z,99698.63
2022-12-08T03:41:20.087Z,99695.06
2022-12-08T03:43:51.977Z,99686.19
2022-12-08T03:48:46.627Z,99682.53
2022-12-08T03:51:13.720Z,99681.84
2022-12-08T03:53:40.335Z,99685.47
2022-12-08T03:56:14.550Z,99682.94
2022-12-08T03:58:41.483Z,99682.88
2022-12-08T04:01:07.964Z,99680.44
2022-12-08T04:03:34.420Z,99684.69
2022-12-08T04:06:00.781Z,99680.44
2022-12-08T04:08:27.330Z,99678.81
2022-12-08T04:10:53.776Z,99673.75
2022-12-08T04:13:20.215Z,99668.56
2022-12-08T04:15:47.959Z,99665.06
2022-12-08T04:18:15.048Z,99670.47
2022-12-08T04:20:42.736Z,99655.53
2022-12-08T04:23:11.992Z,99664.38
2022-12-08T04:25:38.765Z,99665.34
2022-12-08T04:28:05.740Z,99664.59
2022-12-08T04:30:32.708Z,99664.59
2022-12-08T04:32:59.611Z,99667.34
2022-12-08T04:35:26.006Z,99666.50
2022-12-08T04:37:52.398Z,99663.84
2022-12-08T04:40:18.861Z,99657.66
2022-12-08T04:42:45.314Z,99659.13
2022-12-08T04:45:11.713Z,99659.41
2022-12-08T04:47:38.275Z,99661.25
2022-12-08T04:50:06.326Z,99659.72
2022-12-08T04:52:32.915Z,99660.56
2022-12-08T04:54:59.288Z,99659.13
2022-12-08T04:57:25.700Z,99665.22
2022-12-08T04:59:53.151Z,99660.00
2022-12-08T05:02:19.673Z,99660.06
2022-12-08T05:04:46.412Z,99654.97
2022-12-08T05:07:12.800Z,99659.16
2022-12-08T05:09:39.138Z,99658.19
2022-12-08T05:12:05.657Z,99654.00
2022-12-08T05:14:31.999Z,99650.50
2022-12-08T05:16:58.398Z,99659.03
2022-12-08T05:19:26.240Z,99651.16
2022-12-08T05:21:52.564Z,99653.66
2022-12-08T05:24:18.953Z,99644.78
2022-12-08T05:26:45.344Z,99641.31
2022-12-08T05:29:11.707Z,99639.53
2022-12-08T05:31:38.144Z,99632.16
2022-12-08T05:34:04.596Z,99638.31
2022-12-08T05:36:30.988Z,99632.09
2022-12-08T05:38:58.278Z,99634.03
2022-12-08T05:41:25.157Z,99635.03
2022-12-08T05:43:51.737Z,99628.06
2022-12-08T05:46:19.010Z,99639.50
2022-12-08T05:48:45.514Z,99632.44
2022-12-08T05:51:20.916Z,99627.09
2022-12-08T05:53:48.046Z,99624.47
2022-12-08T05:56:15.208Z,99629.72
2022-12-08T05:58:41.712Z,99623.50
2022-12-08T06:01:08.310Z,99627.75
2022-12-08T06:03:34.787Z,99622.53
2022-12-08T06:06:01.348Z,99631.19
2022-12-08T06:08:27.865Z,99623.22
2022-12-08T06:10:54.292Z,99626.72
2022-12-08T06:13:20.611Z,99622.28
2022-12-08T06:15:47.002Z,99615.19
2022-12-08T06:18:13.438Z,99620.34
2022-12-08T06:20:39.931Z,99630.94
2022-12-08T06:23:06.425Z,99638.81
2022-12-08T06:25:32.800Z,99633.66
2022-12-08T06:27:59.197Z,99630.19
2022-12-08T06:30:26.072Z,99635.44
2022-12-08T06:32:52.410Z,99631.09
2022-12-08T06:35:18.739Z,99643.38
2022-12-08T06:37:45.152Z,99634.56
2022-12-08T06:40:12.004Z,99635.56
2022-12-08T06:42:44.180Z,99637.22
2022-12-08T06:45:12.787Z,99631.03
2022-12-08T06:47:39.200Z,99634.66
2022-12-08T06:50:07.961Z,99629.38
2022-12-08T06:52:37.669Z,99636.41
2022-12-08T06:55:08.241Z,99632.06
2022-12-08T06:57:34.895Z,99628.59
2022-12-08T07:00:01.468Z,99639.09
2022-12-08T07:02:28.140Z,99633.88
2022-12-08T07:04:54.671Z,99634.72
2022-12-08T07:07:21.192Z,99633.06
2022-12-08T07:09:47.572Z,99635.59
2022-12-08T07:12:13.927Z,99630.94
2022-12-08T07:14:40.335Z,99625.75
2022-12-08T07:17:06.759Z,99634.59
2022-12-08T07:19:33.356Z,99632.84
2022-12-08T07:21:59.743Z,99631.16
2022-12-08T07:24:26.138Z,99639.03
2022-12-08T07:26:52.565Z,99635.56
2022-12-08T07:29:24.572Z,99639.00
2022-12-08T07:31:52.512Z,99636.34
2022-12-08T07:34:18.872Z,99635.50
2022-12-08T07:36:45.192Z,99637.13
2022-12-08T07:39:11.634Z,99637.13
2022-12-08T07:41:38.029Z,99634.47
2022-12-08T07:44:04.660Z,99627.56
2022-12-08T07:46:31.183Z,99630.25
2022-12-08T07:48:57.677Z,99633.75
2022-12-08T07:51:25.125Z,99633.66
2022-12-08T07:53:54.588Z,99632.81
2022-12-08T07:56:21.911Z,99630.97
2022-12-08T07:58:48.308Z,99627.47
2022-12-08T08:01:21.781Z,99627.47
2022-12-08T08:03:48.443Z,99632.72
2022-12-08T08:06:14.929Z,99628.34
2022-12-08T08:08:41.320Z,99629.19
2022-12-08T08:11:15.826Z,99619.56
2022-12-08T08:13:45.613Z,99620.22
2022-12-08T08:16:15.496Z,99627.19
2022-12-08T08:18:42.088Z,99627.13
2022-12-08T08:21:43.248Z,99626.22
2022-12-08T08:23:54.903Z,99628.66
2022-12-08T08:26:21.255Z,99633.13
2022-12-08T08:28:48.193Z,99629.53
2022-12-08T08:31:14.764Z,99624.34
2022-12-08T08:33:41.213Z,99623.41
2022-12-08T08:36:09.236Z,99630.56
2022-12-08T08:38:39.258Z,99634.75
2022-12-08T08:41:11.777Z,99632.13
2022-12-08T08:43:39.069Z,99631.16
2022-12-08T08:46:06.422Z,99633.78
2022-12-08T08:48:33.631Z,99627.56
2022-12-08T08:51:07.832Z,99629.13
2022-12-08T08:53:34.224Z,99630.81
2022-12-08T08:56:02.897Z,99630.03
2022-12-08T08:58:29.521Z,99630.88
2022-12-08T09:00:56.392Z,99632.84
2022-12-08T09:03:22.796Z,99630.22
2022-12-08T09:05:50.276Z,99631.69
2022-12-08T09:08:16.698Z,99621.09
2022-12-08T09:10:43.115Z,99621.75
2022-12-08T09:13:09.509Z,99626.97
2022-12-08T09:15:35.911Z,99623.59
2022-12-08T09:18:02.357Z,99614.63
2022-12-08T09:20:28.900Z,99617.28
2022-12-08T09:22:55.332Z,99614.53
2022-12-08T09:25:21.712Z,99616.38
2022-12-08T09:27:48.112Z,99614.44
2022-12-08T09:30:14.702Z,99616.19
2022-12-08T09:32:41.089Z,99612.53
2022-12-08T09:35:07.823Z,99620.41
2022-12-08T09:37:34.989Z,99618.81
2022-12-08T09:40:01.791Z,99617.69
2022-12-08T09:42:38.732Z,99612.34
2022-12-08T09:45:11.737Z,99606.16
2022-12-08T09:47:47.414Z,99613.13
2022-12-08T09:50:36.745Z,99612.06
2022-12-08T09:53:44.784Z,99609.22
2022-12-08T09:56:22.535Z,99604.94
2022-12-08T09:59:21.844Z,99609.13
2022-12-08T10:01:48.633Z,99599.53
2022-12-08T10:04:24.347Z,99596.56
2022-12-08T10:07:00.093Z,99594.53
2022-12-08T10:09:38.900Z,99586.91
2022-12-08T10:12:29.626Z,99586.69
2022-12-08T10:15:08.092Z,99588.41
2022-12-08T10:17:49.423Z,99585.59
2022-12-08T10:20:24.251Z,99584.66
2022-12-08T10:23:18.521Z,99582.53
2022-12-08T10:25:47.533Z,99574.31
2022-12-08T10:28:15.158Z,99579.06
2022-12-08T10:30:41.975Z,99573.78
2022-12-08T10:33:17.187Z,99565.44
2022-12-08T10:35:56.403Z,99560.53
2022-12-08T10:38:28.609Z,99559.13
2022-12-08T10:41:04.610Z,99559.00
2022-12-08T10:43:32.027Z,99566.34
2022-12-08T10:46:15.747Z,99556.00
2022-12-08T10:48:51.134Z,99560.03
2022-12-08T10:51:39.540Z,99552.53
2022-12-08T10:54:24.329Z,99543.94
2022-12-08T10:56:55.364Z,99543.09
2022-12-08T10:59:21.864Z,99537.94
2022-12-08T11:01:50.413Z,99534.81
2022-12-08T11:04:33.964Z,99545.03
2022-12-08T11:07:00.676Z,99536.81
2022-12-08T11:09:48.600Z,99537.00
2022-12-08T11:12:20.411Z,99535.34
2022-12-08T11:14:55.644Z,99536.09
2022-12-08T11:17:21.956Z,99533.78
2022-12-08T11:20:04.175Z,99534.47
2022-12-08T11:22:34.011Z,99539.00
2022-12-08T11:25:10.929Z,99528.09
2022-12-08T11:27:44.232Z,99523.25
2022-12-08T11:30:30.320Z,99514.56
2022-12-08T11:33:03.307Z,99517.38
2022-12-08T11:35:34.822Z,99511.88
2022-12-08T11:38:23.859Z,99511.28
2022-12-08T11:41:14.179Z,99505.19
2022-12-08T11:43:42.628Z,99500.88
2022-12-08T11:46:21.183Z,99497.22
2022-12-08T11:48:54.318Z,99497.66
2022-12-08T11:51:44.128Z,99496.00
2022-12-08T11:54:29.456Z,99494.59
2022-12-08T11:56:58.286Z,99487.44
2022-12-08T11:59:44.405Z,99486.16
2022-12-08T12:02:21.151Z,99494.34
2022-12-08T12:04:55.694Z,99481.06
2022-12-08T12:07:58.008Z,99488.53
2022-12-08T12:10:52.159Z,99477.91
2022-12-08T12:13:30.735Z,99480.78
2022-12-08T12:16:22.970Z,99479.69
2022-12-08T12:18:55.990Z,99477.47
2022-12-08T12:21:30.241Z,99470.28
2022-12-08T12:24:00.953Z,99474.78
2022-12-08T12:26:35.212Z,99469.88
2022-12-08T12:29:04.478Z,99462.00
2022-12-08T12:31:43.957Z,99466.69
2022-12-08T12:34:18.422Z,99467.06
2022-12-08T12:37:05.296Z,99465.84
2022-12-08T12:39:45.564Z,99456.81
2022-12-08T12:42:45.556Z,99458.78
2022-12-08T12:45:17.836Z,99462.13
2022-12-08T12:47:56.820Z,99453.31
2022-12-08T12:50:36.964Z,99443.28
2022-12-08T12:53:15.383Z,99450.59
2022-12-08T12:55:51.016Z,99440.19
2022-12-08T12:58:27.949Z,99440.91
2022-12-08T13:01:12.849Z,99437.59
2022-12-08T13:03:41.513Z,99442.97
2022-12-08T13:06:14.567Z,99442.03
2022-12-08T13:08:50.747Z,99438.91
2022-12-08T13:11:17.612Z,99452.94
2022-12-08T13:13:58.490Z,99444.25
2022-12-08T13:16:27.254Z,99441.50
2022-12-08T13:18:58.869Z,99439.13
2022-12-08T13:21:33.619Z,99433.84
2022-12-08T13:24:26.623Z,99433.34
2022-12-08T13:27:04.890Z,99431.03
2022-12-08T13:29:35.264Z,99424.31
2022-12-08T13:32:08.660Z,99420.69
2022-12-08T13:34:46.331Z,99418.44
2022-12-08T13:37:15.551Z,99412.00
2022-12-08T13:40:24.923Z,99418.22
2022-12-08T13:43:04.905Z,99413.44
2022-12-08T13:46:20.135Z,99418.25
2022-12-08T13:49:52.752Z,99410.63
2022-12-08T13:57:18.616Z,99405.41
2022-12-08T13:59:46.407Z,99403.16
2022-12-08T14:02:45.326Z,99412.88
2022-12-08T14:05:19.044Z,99394.22
2022-12-08T14:08:00.765Z,99410.66
2022-12-08T14:10:30.463Z,99403.66
2022-12-08T14:13:06.320Z,99412.66
2022-12-08T14:15:37.639Z,99411.31
2022-12-08T14:18:06.705Z,99410.94
2022-12-08T14:20:51.893Z,99414.16
2022-12-08T14:23:21.336Z,99413.63
2022-12-08T14:25:48.171Z,99414.28
2022-12-08T14:28:14.684Z,99421.13
2022-12-08T14:30:41.219Z,99429.06
2022-12-08T14:33:14.456Z,99429.19
2022-12-08T14:35:40.915Z,99431.09
2022-12-08T14:38:16.693Z,99427.13
2022-12-08T14:40:47.552Z,99426.38
2022-12-08T14:43:25.763Z,99428.53
2022-12-08T14:45:56.107Z,99431.53
2022-12-08T14:48:25.359Z,99434.72
2022-12-08T14:50:54.762Z,99429.88
2022-12-08T14:53:21.521Z,99438.00
2022-12-08T14:55:49.071Z,99435.31
2022-12-08T14:58:19.048Z,99435.34
2022-12-08T15:00:48.465Z,99435.56
2022-12-08T15:03:17.111Z,99440.19
2022-12-08T15:05:43.639Z,99439.53
2022-12-08T15:08:12.895Z,99439.66
2022-12-08T15:10:39.936Z,99441.59
2022-12-08T15:13:07.288Z,99445.94
2022-12-08T15:15:48.259Z,99440.75
2022-12-08T15:18:16.739Z,99438.91
2022-12-08T15:20:53.846Z,99446.03
2022-12-08T15:23:26.259Z,99447.88
2022-12-08T15:25:54.259Z,99444.53
2022-12-08T15:28:28.098Z,99442.69
2022-12-08T15:30:57.251Z,99439.19
2022-12-08T15:33:23.732Z,99439.34
2022-12-08T15:35:50.854Z,99440.94
2022-12-08T15:38:24.758Z,99447.13
2022-12-08T15:40:52.449Z,99448.16
2022-12-08T15:43:19.676Z,99441.16
2022-12-08T15:45:57.778Z,99434.66
2022-12-08T15:48:27.887Z,99438.22
2022-12-08T15:50:55.084Z,99444.41
2022-12-08T15:53:21.944Z,99437.41
2022-12-08T15:56:03.900Z,99435.63
2022-12-08T15:58:54.015Z,99435.81
2022-12-08T16:01:21.031Z,99438.53
2022-12-08T16:09:40.507Z,99436.47
2022-12-08T16:12:57.192Z,99425.16
2022-12-08T16:15:50.062Z,99442.44
2022-12-08T16:18:13.023Z,99440.75
2022-12-08T16:21:06.082Z,99433.06
2022-12-08T16:23:42.141Z,99439.91
2022-12-08T16:27:01.116Z,99433.84
2022-12-08T16:29:07.721Z,99438.31
2022-12-08T16:31:34.454Z,99440.84
2022-12-08T16:34:00.917Z,99439.06
2022-12-08T16:36:27.270Z,99439.03
2022-12-08T16:38:53.701Z,99435.34
2022-12-08T16:41:38.523Z,99435.50
2022-12-08T16:44:06.492Z,99433.81
2022-12-08T16:46:33.649Z,99427.50
2022-12-08T16:49:00.079Z,99431.16
2022-12-08T16:51:27.345Z,99435.44
2022-12-08T16:53:55.059Z,99426.81
2022-12-08T16:56:25.149Z,99429.41
2022-12-08T16:58:57.109Z,99429.38
2022-12-08T17:01:23.783Z,99432.31
2022-12-08T17:04:14.269Z,99428.38
2022-12-08T17:06:36.541Z,99428.94
2022-12-08T17:09:03.020Z,99424.16
2022-12-08T17:11:34.983Z,99423.91
2022-12-08T17:14:05.727Z,99424.69
2022-12-08T17:16:32.196Z,99411.91
2022-12-08T17:18:58.633Z,99415.38
2022-12-08T17:21:25.101Z,99416.19
2022-12-08T17:23:51.625Z,99413.63
2022-12-08T17:26:18.078Z,99407.53
2022-12-08T17:28:59.987Z,99415.34
2022-12-08T17:31:30.122Z,99413.56
2022-12-08T17:34:05.531Z,99412.69
2022-12-08T17:36:32.052Z,99410.91
2022-12-08T17:38:59.801Z,99405.78
2022-12-08T17:41:26.584Z,99404.13
2022-12-08T17:43:52.943Z,99408.56
2022-12-08T17:46:20.818Z,99406.81
2022-12-08T17:48:47.771Z,99407.69
2022-12-08T17:51:14.862Z,99411.28
2022-12-08T17:53:41.251Z,99406.00
2022-12-08T17:56:15.447Z,99399.94
2022-12-08T17:58:41.851Z,99409.63
2022-12-08T18:01:09.780Z,99401.78
2022-12-08T18:03:36.924Z,99400.00
2022-12-08T18:06:11.140Z,99395.63
2022-12-08T18:08:38.621Z,99392.84
2022-12-08T18:11:10.428Z,99405.53
2022-12-08T18:13:36.848Z,99410.63
2022-12-08T18:16:03.463Z,99406.50
2022-12-08T18:18:29.947Z,99408.91
2022-12-08T18:20:56.286Z,99408.03
2022-12-08T18:23:22.708Z,99410.50
2022-12-08T18:25:49.071Z,99406.91
2022-12-08T18:28:15.567Z,99406.28
2022-12-08T18:30:42.025Z,99408.91
2022-12-08T18:33:08.533Z,99403.72
2022-12-08T18:35:35.044Z,99411.03
2022-12-08T18:38:01.454Z,99410.41
2022-12-08T18:40:28.506Z,99401.44
2022-12-08T18:42:55.348Z,99412.94
2022-12-08T18:45:22.849Z,99409.56
2022-12-08T18:47:50.881Z,99403.19
2022-12-08T18:50:18.116Z,99403.22
2022-12-08T18:52:46.053Z,99402.47
2022-12-08T18:55:12.860Z,99406.03
2022-12-08T18:57:41.551Z,99416.78
2022-12-08T19:00:11.371Z,99416.75
2022-12-08T19:02:38.797Z,99416.44
2022-12-08T19:05:06.413Z,99424.75
2022-12-08T19:07:32.833Z,99425.53
2022-12-08T19:09:59.437Z,99429.88
2022-12-08T19:12:26.302Z,99431.63
2022-12-08T19:14:53.200Z,99420.94
2022-12-08T19:17:19.643Z,99425.94
2022-12-08T19:19:46.025Z,99432.50
2022-12-08T19:22:12.468Z,99426.69
2022-12-08T19:24:38.867Z,99427.59
2022-12-08T19:27:05.741Z,99429.22
2022-12-08T19:29:32.254Z,99430.94
2022-12-08T19:32:00.195Z,99423.09
2022-12-08T19:34:26.553Z,99422.38
2022-12-08T19:36:52.960Z,99421.81
2022-12-08T19:39:40.542Z,99421.72
2022-12-08T19:42:33.585Z,99416.34
2022-12-08T19:45:06.757Z,99407.63
2022-12-08T19:47:33.408Z,99408.53
2022-12-08T19:50:18.180Z,99406.03
2022-12-08T19:52:44.901Z,99402.44
2022-12-08T19:55:12.379Z,99402.38
2022-12-08T19:57:38.870Z,99400.88
2022-12-08T20:00:06.902Z,99405.34
2022-12-08T20:02:33.456Z,99412.66
2022-12-08T20:04:59.976Z,99415.16
2022-12-08T20:07:26.367Z,99408.13
2022-12-08T20:09:52.756Z,99401.78
2022-12-08T20:12:19.147Z,99393.94
2022-12-08T20:14:46.184Z,99395.78
2022-12-08T20:17:12.896Z,99400.03
2022-12-08T20:19:39.387Z,99394.81
2022-12-08T20:22:05.871Z,99403.47
2022-12-08T20:24:32.239Z,99398.38
2022-12-08T20:26:58.629Z,99402.66
2022-12-08T20:29:25.016Z,99401.66
2022-12-08T20:31:51.437Z,99403.44
2022-12-08T20:34:19.249Z,99400.03
2022-12-08T20:36:46.071Z,99398.38
2022-12-08T20:39:14.630Z,99404.63
2022-12-08T20:41:42.179Z,99398.44
2022-12-08T20:44:09.099Z,99405.44
2022-12-08T20:46:35.610Z,99409.63
2022-12-08T20:49:03.976Z,99409.81
2022-12-08T20:51:34.460Z,99403.72
2022-12-08T20:54:01.238Z,99398.41
2022-12-08T20:56:27.788Z,99406.44
2022-12-08T20:58:54.842Z,99402.94
2022-12-08T21:01:23.210Z,99403.72
2022-12-08T21:03:50.948Z,99403.72
2022-12-08T21:06:21.613Z,99406.34
2022-12-08T21:08:48.610Z,99404.09
2022-12-08T21:11:15.661Z,99404.38
2022-12-08T21:13:43.209Z,99402.50
2022-12-08T21:16:15.143Z,99399.94
2022-12-08T21:18:42.186Z,99402.38
2022-12-08T21:21:12.346Z,99399.88
2022-12-08T21:23:39.937Z,99393.72
2022-12-08T21:26:13.113Z,99404.28
2022-12-08T21:28:40.378Z,99406.03
2022-12-08T21:31:10.813Z,99400.66
2022-12-08T21:33:38.399Z,99399.06
2022-12-08T21:36:10.136Z,99403.31
2022-12-08T21:38:38.241Z,99404.31
2022-12-08T21:41:10.079Z,99403.53
2022-12-08T21:43:36.669Z,99407.78
2022-12-08T21:46:03.687Z,99402.47
2022-12-08T21:48:30.183Z,99404.09
2022-12-08T21:50:57.166Z,99402.53
2022-12-08T21:53:26.461Z,99408.50
2022-12-08T21:55:53.234Z,99406.69
2022-12-08T21:58:19.762Z,99411.97
2022-12-08T22:00:46.301Z,99410.06
2022-12-08T22:03:14.842Z,99412.75
2022-12-08T22:05:42.229Z,99409.25
2022-12-08T22:08:09.078Z,99415.47
2022-12-08T22:10:35.605Z,99414.66
2022-12-08T22:13:02.231Z,99409.50
2022-12-08T22:15:29.772Z,99415.63
2022-12-08T22:17:56.856Z,99416.56
2022-12-08T22:20:23.742Z,99414.78
2022-12-08T22:22:50.337Z,99416.44
2022-12-08T22:25:16.919Z,99408.56
2022-12-08T22:27:43.256Z,99408.66
2022-12-08T22:30:11.063Z,99406.88
2022-12-08T22:32:38.418Z,99406.94
2022-12-08T22:35:05.572Z,99406.94
2022-12-08T22:37:32.228Z,99406.03
2022-12-08T22:39:58.688Z,99407.78
2022-12-08T22:42:25.084Z,99400.91
2022-12-08T22:44:51.498Z,99404.19
2022-12-08T22:47:17.853Z,99395.41
2022-12-08T22:49:44.165Z,99399.72
2022-12-08T22:52:10.585Z,99383.19
2022-12-08T22:54:36.926Z,99391.06
2022-12-08T22:57:03.678Z,99384.13
2022-12-08T22:59:30.368Z,99385.94
2022-12-08T23:01:56.887Z,99384.25
2022-12-08T23:04:23.360Z,99389.53
2022-12-08T23:06:50.313Z,99389.59
2022-12-08T23:09:17.047Z,99389.59
2022-12-08T23:11:44.173Z,99392.25
2022-12-08T23:14:10.725Z,99386.16
2022-12-08T23:16:37.664Z,99387.88
2022-12-08T23:19:04.205Z,99379.25
2022-12-08T23:21:30.756Z,99382.66
2022-12-08T23:23:59.291Z,99379.28
2022-12-08T23:26:28.418Z,99380.13
2022-12-08T23:28:56.078Z,99368.78
2022-12-08T23:31:24.362Z,99371.44
2022-12-08T23:33:50.858Z,99370.69
2022-12-08T23:36:18.875Z,99369.75
2022-12-08T23:38:46.193Z,99371.44
2022-12-08T23:41:14.287Z,99369.78
2022-12-08T23:43:49.876Z,99360.16
2022-12-08T23:46:18.342Z,99353.19
2022-12-08T23:48:45.215Z,99350.59
2022-12-08T23:51:12.610Z,99358.44
2022-12-08T23:53:39.143Z,99352.34
2022-12-08T23:56:07.840Z,99356.63
2022-12-08T23:58:35.239Z,99351.66
